Terminal Aerodrome Forecast
Issued by NWS Chicago, IL

Home | Current Version | Previous Version | Graphics & Text | Print | Product List | Glossary On
Versions: 1 2 3 4 5 6 7 8 9 10 11 12 13 14 15 16 17 18 19 20 21 22 23
096
FTUS43 KLOT 260254 AAA
TAFRFD
TAF AMD
KRFD 260254Z 2603/2624 28014G22KT P6SM VCSH BKN040 BKN080
      TEMPO 2603/2604 6SM -SHRA
     FM260430 28012G18KT P6SM BKN080 BKN120
     FM261500 29017G30KT P6SM SCT050=

USA.gov is the U.S. government's official web portal to all federal, state and local government web resources and services.